createdAt,value
2022-12-23T00:01:56.251Z,99621.53
2022-12-23T00:04:26.749Z,99619.75
2022-12-23T00:06:56.946Z,99624.91
2022-12-23T00:09:27.140Z,99619.41
2022-12-23T00:12:09.577Z,99620.41
2022-12-23T00:14:54.812Z,99609.22
2022-12-23T00:17:25.230Z,99611.75
2022-12-23T00:19:55.556Z,99603.81
2022-12-23T00:22:45.947Z,99605.25
2022-12-23T00:25:16.778Z,99606.59
2022-12-23T00:28:01.584Z,99602.88
2022-12-23T00:30:34.564Z,99599.34
2022-12-23T00:33:04.820Z,99609.59
2022-12-23T00:35:35.222Z,99602.59
2022-12-23T00:38:05.471Z,99602.59
2022-12-23T00:40:48.546Z,99611.28
2022-12-23T00:43:18.732Z,99610.44
2022-12-23T00:45:51.701Z,99612.97
2022-12-23T00:48:34.568Z,99600.63
2022-12-23T00:51:04.970Z,99600.72
2022-12-23T00:53:37.419Z,99603.44
2022-12-23T00:56:08.710Z,99602.59
2022-12-23T00:58:38.998Z,99602.59
2022-12-23T01:01:24.333Z,99609.78
2022-12-23T01:04:07.125Z,99615.66
2022-12-23T01:06:40.382Z,99609.78
2022-12-23T01:09:10.843Z,99619.50
2022-12-23T01:11:43.885Z,99614.63
2022-12-23T01:14:14.059Z,99606.06
2022-12-23T01:16:48.156Z,99601.75
2022-12-23T01:19:19.521Z,99599.97
2022-12-23T01:21:49.864Z,99608.56
2022-12-23T01:24:20.109Z,99597.38
2022-12-23T01:26:50.318Z,99614.44
2022-12-23T01:29:20.566Z,99618.00
2022-12-23T01:31:53.431Z,99621.34
2022-12-23T01:34:23.767Z,99618.84
2022-12-23T01:36:53.955Z,99613.69
2022-12-23T01:39:24.168Z,99608.56
2022-12-23T01:42:06.866Z,99605.88
2022-12-23T01:44:52.686Z,99606.50
2022-12-23T01:47:41.834Z,99600.34
2022-12-23T01:50:17.838Z,99599.41
2022-12-23T01:52:53.287Z,99608.00
2022-12-23T01:55:28.116Z,99607.91
2022-12-23T01:58:03.521Z,99604.47
2022-12-23T02:00:47.210Z,99606.94
2022-12-23T02:03:32.398Z,99619.00
2022-12-23T02:06:23.835Z,99616.50
2022-12-23T02:09:07.621Z,99615.63
2022-12-23T02:11:50.774Z,99601.34
2022-12-23T02:14:48.638Z,99602.84
2022-12-23T02:17:28.000Z,99602.00
2022-12-23T02:20:42.618Z,99600.97
2022-12-23T02:23:49.705Z,99602.84
2022-12-23T02:26:50.720Z,99600.59
2022-12-23T02:29:49.314Z,99603.78
2022-12-23T02:32:27.787Z,99595.84
2022-12-23T02:35:06.342Z,99599.28
2022-12-23T02:37:41.859Z,99599.94
2022-12-23T02:40:17.441Z,99598.06
2022-12-23T02:42:52.077Z,99594.41
2022-12-23T02:45:29.579Z,99587.50
2022-12-23T02:48:08.422Z,99570.34
2022-12-23T02:50:42.089Z,99571.28
2022-12-23T02:53:17.885Z,99567.91
2022-12-23T02:55:56.319Z,99556.63
2022-12-23T02:58:31.185Z,99551.38
2022-12-23T03:01:04.190Z,99557.09
2022-12-23T03:03:38.500Z,99558.69
2022-12-23T03:06:20.298Z,99552.50
2022-12-23T03:08:52.468Z,99562.03
2022-12-23T03:11:22.952Z,99568.28
2022-12-23T03:14:09.002Z,99562.97
2022-12-23T03:16:51.296Z,99557.84
2022-12-23T03:19:35.350Z,99557.84
2022-12-23T03:22:13.626Z,99560.34
2022-12-23T03:24:50.403Z,99560.16
2022-12-23T03:27:29.001Z,99558.28
2022-12-23T03:30:06.835Z,99558.19
2022-12-23T03:32:40.757Z,99566.78
2022-12-23T03:35:17.375Z,99559.78
2022-12-23T03:37:51.677Z,99556.22
2022-12-23T03:40:28.041Z,99566.59
2022-12-23T03:43:04.063Z,99556.88
2022-12-23T03:45:40.722Z,99555.19
2022-12-23T03:48:17.801Z,99551.44
2022-12-23T03:50:55.677Z,99551.84
2022-12-23T03:53:32.579Z,99550.81
2022-12-23T03:56:08.876Z,99558.00
2022-12-23T03:58:42.688Z,99526.66
2022-12-23T04:01:20.014Z,99551.75
2022-12-23T04:04:00.433Z,99552.28
2022-12-23T04:06:39.026Z,99547.16
2022-12-23T04:09:12.055Z,99542.78
2022-12-23T04:11:45.025Z,99536.59
2022-12-23T04:14:19.985Z,99533.84
2022-12-23T04:16:53.055Z,99537.31
2022-12-23T04:19:23.443Z,99544.53
2022-12-23T04:21:58.719Z,99531.13
2022-12-23T04:24:28.936Z,99537.19
2022-12-23T04:26:59.065Z,99544.09
2022-12-23T04:29:29.240Z,99543.91
2022-12-23T04:31:59.520Z,99538.03
2022-12-23T04:34:29.888Z,99524.03
2022-12-23T04:37:02.969Z,99528.75
2022-12-23T04:39:33.178Z,99530.38
2022-12-23T04:42:03.367Z,99533.63
2022-12-23T04:44:33.530Z,99528.41
2022-12-23T04:47:03.894Z,99526.53
2022-12-23T04:49:35.454Z,99518.88
2022-12-23T04:52:08.541Z,99518.03
2022-12-23T04:54:45.515Z,99518.34
2022-12-23T04:57:16.596Z,99518.34
2022-12-23T04:59:47.299Z,99513.75
2022-12-23T05:02:17.561Z,99512.72
2022-12-23T05:04:47.779Z,99511.69
2022-12-23T05:07:20.635Z,99512.63
2022-12-23T05:09:54.447Z,99517.66
2022-12-23T05:12:24.570Z,99520.06
2022-12-23T05:14:54.800Z,99516.91
2022-12-23T05:17:25.143Z,99514.31
2022-12-23T05:19:59.126Z,99510.09
2022-12-23T05:22:31.916Z,99498.31
2022-12-23T05:25:02.042Z,99490.78
2022-12-23T05:27:32.276Z,99502.47
2022-12-23T05:30:09.327Z,99496.00
2022-12-23T05:32:44.740Z,99491.72
2022-12-23T05:35:14.923Z,99497.88
2022-12-23T05:37:47.814Z,99491.16
2022-12-23T05:40:24.094Z,99491.25
2022-12-23T05:43:00.007Z,99491.34
2022-12-23T05:45:30.364Z,99491.34
2022-12-23T05:48:03.514Z,99475.38
2022-12-23T05:50:33.880Z,99482.47
2022-12-23T05:53:06.843Z,99500.88
2022-12-23T05:55:37.695Z,99523.56
2022-12-23T05:58:08.021Z,99533.00
2022-12-23T06:00:43.549Z,99540.19
2022-12-23T06:03:14.074Z,99545.13
2022-12-23T06:05:44.348Z,99561.56
2022-12-23T06:08:17.087Z,99562.41
2022-12-23T06:10:47.436Z,99567.81
2022-12-23T06:13:17.770Z,99570.25
2022-12-23T06:15:54.335Z,99572.84
2022-12-23T06:18:24.551Z,99577.25
2022-12-23T06:20:55.278Z,99573.69
2022-12-23T06:23:28.031Z,99585.00
2022-12-23T06:26:03.243Z,99584.91
2022-12-23T06:28:34.518Z,99592.75
2022-12-23T06:31:04.670Z,99583.97
2022-12-23T06:33:34.888Z,99592.75
2022-12-23T06:36:05.183Z,99594.31
2022-12-23T06:38:38.051Z,99608.13
2022-12-23T06:41:08.773Z,99605.53
2022-12-23T06:43:38.945Z,99614.22
2022-12-23T06:46:09.192Z,99609.81
2022-12-23T06:48:42.276Z,99615.84
2022-12-23T06:51:13.286Z,99615.75
2022-12-23T06:53:46.209Z,99615.66
2022-12-23T06:56:16.488Z,99612.97
2022-12-23T06:58:47.176Z,99616.69
2022-12-23T07:01:17.525Z,99620.06
2022-12-23T07:03:50.262Z,99619.22
2022-12-23T07:06:20.477Z,99615.66
2022-12-23T07:08:53.634Z,99625.38
2022-12-23T07:11:23.793Z,99615.75
2022-12-23T07:13:54.152Z,99619.22
2022-12-23T07:16:24.354Z,99616.81
2022-12-23T07:18:54.675Z,99612.44
2022-12-23T07:21:29.372Z,99605.31
2022-12-23T07:24:02.693Z,99614.00
2022-12-23T07:26:32.842Z,99630.53
2022-12-23T07:29:04.403Z,99632.19
2022-12-23T07:31:37.126Z,99634.53
2022-12-23T07:34:11.220Z,99630.31
2022-12-23T07:36:41.394Z,99626.59
2022-12-23T07:39:14.272Z,99632.84
2022-12-23T07:41:44.486Z,99628.16
2022-12-23T07:44:14.750Z,99627.78
2022-12-23T07:46:45.232Z,99622.97
2022-12-23T07:49:15.590Z,99625.50
2022-12-23T07:51:45.763Z,99624.16
2022-12-23T07:54:18.637Z,99626.41
2022-12-23T07:56:48.851Z,99620.97
2022-12-23T07:59:19.274Z,99631.03
2022-12-23T08:01:49.901Z,99622.97
2022-12-23T08:04:20.727Z,99626.41
2022-12-23T08:06:50.969Z,99628.19
2022-12-23T08:09:24.104Z,99627.16
2022-12-23T08:11:54.514Z,99623.72
2022-12-23T08:14:24.653Z,99622.38
2022-12-23T08:16:54.907Z,99626.13
2022-12-23T08:19:25.114Z,99629.19
2022-12-23T08:21:55.545Z,99623.66
2022-12-23T08:24:28.328Z,99631.50
2022-12-23T08:26:58.549Z,99632.53
2022-12-23T08:29:35.781Z,99625.44
2022-12-23T08:32:07.188Z,99620.03
2022-12-23T08:34:37.843Z,99615.91
2022-12-23T08:37:07.997Z,99615.72
2022-12-23T08:39:42.422Z,99603.47
2022-12-23T08:42:12.601Z,99608.53
2022-12-23T08:44:42.958Z,99603.88
2022-12-23T08:47:13.152Z,99597.72
2022-12-23T08:49:47.060Z,99590.50
2022-12-23T08:52:17.732Z,99591.22
2022-12-23T08:54:51.204Z,99594.09
2022-12-23T08:57:21.429Z,99590.22
2022-12-23T08:59:51.929Z,99581.06
2022-12-23T09:02:22.308Z,99580.03
2022-12-23T09:04:52.705Z,99568.19
2022-12-23T09:07:22.941Z,99562.03
2022-12-23T09:09:58.610Z,99560.00
2022-12-23T09:12:32.003Z,99562.56
2022-12-23T09:15:02.404Z,99563.69
2022-12-23T09:17:33.562Z,99560.03
2022-12-23T09:20:05.188Z,99555.00
2022-12-23T09:22:36.144Z,99549.00
2022-12-23T09:25:10.135Z,99544.06
2022-12-23T09:27:44.071Z,99550.97
2022-12-23T09:30:15.845Z,99533.59
2022-12-23T09:32:46.086Z,99534.25
2022-12-23T09:35:16.416Z,99528.38
2022-12-23T09:37:46.675Z,99528.47
2022-12-23T09:40:22.593Z,99522.31
2022-12-23T09:43:01.953Z,99530.66
2022-12-23T09:45:47.411Z,99522.78
2022-12-23T09:48:22.379Z,99514.91
2022-12-23T09:50:52.592Z,99518.16
2022-12-23T09:53:24.710Z,99528.31
2022-12-23T09:56:05.189Z,99527.88
2022-12-23T09:58:45.845Z,99536.97
2022-12-23T10:01:22.452Z,99536.34
2022-12-23T10:04:26.686Z,99541.22
2022-12-23T10:07:06.617Z,99532.59
2022-12-23T10:09:41.063Z,99541.97
2022-12-23T10:12:27.755Z,99534.06
2022-12-23T10:15:04.411Z,99520.31
2022-12-23T10:17:40.227Z,99516.94
2022-12-23T10:20:21.046Z,99515.63
2022-12-23T10:22:51.497Z,99501.44
2022-12-23T10:25:31.275Z,99489.78
2022-12-23T10:28:04.300Z,99490.94
2022-12-23T10:31:05.624Z,99486.75
2022-12-23T10:33:40.354Z,99484.66
2022-12-23T10:36:15.836Z,99491.53
2022-12-23T10:38:57.313Z,99493.56
2022-12-23T10:41:40.910Z,99492.28
2022-12-23T10:44:39.560Z,99476.47
2022-12-23T10:47:18.587Z,99480.16
2022-12-23T10:50:02.489Z,99466.84
2022-12-23T10:52:37.484Z,99492.63
2022-12-23T10:55:08.774Z,99488.06
2022-12-23T10:57:39.187Z,99479.13
2022-12-23T11:00:21.287Z,99502.44
2022-12-23T11:03:04.680Z,99486.72
2022-12-23T11:05:37.320Z,99482.81
2022-12-23T11:08:08.400Z,99474.81
2022-12-23T11:10:39.699Z,99478.38
2022-12-23T11:13:10.046Z,99465.31
2022-12-23T11:15:44.191Z,99431.44
2022-12-23T11:18:21.202Z,99438.06
2022-12-23T11:21:06.105Z,99440.69
2022-12-23T11:23:38.831Z,99442.72
2022-12-23T11:26:12.365Z,99433.72
2022-12-23T11:28:50.485Z,99430.00
2022-12-23T11:31:32.662Z,99428.59
2022-12-23T11:34:07.775Z,99432.25
2022-12-23T11:36:38.528Z,99462.06
2022-12-23T11:39:27.271Z,99469.72
2022-12-23T11:42:07.859Z,99465.53
2022-12-23T11:44:44.387Z,99455.75
2022-12-23T11:47:29.449Z,99450.41
2022-12-23T11:50:03.167Z,99439.84
2022-12-23T11:52:35.445Z,99429.19
2022-12-23T11:55:09.256Z,99427.31
2022-12-23T11:57:45.455Z,99426.63
2022-12-23T12:00:23.642Z,99416.88
2022-12-23T12:02:58.081Z,99416.38
2022-12-23T12:05:34.375Z,99421.38
2022-12-23T12:08:08.683Z,99430.09
2022-12-23T12:10:42.418Z,99434.88
2022-12-23T12:13:27.023Z,99431.09
2022-12-23T12:16:06.624Z,99440.28
2022-12-23T12:18:42.128Z,99448.31
2022-12-23T12:21:17.263Z,99444.22
2022-12-23T12:24:08.319Z,99443.06
2022-12-23T12:26:43.600Z,99441.88
2022-12-23T12:29:21.491Z,99435.56
2022-12-23T12:31:54.293Z,99434.84
2022-12-23T12:34:52.534Z,99441.38
2022-12-23T12:37:31.356Z,99434.91
2022-12-23T12:40:04.296Z,99443.66
2022-12-23T12:42:40.698Z,99445.44
2022-12-23T12:45:19.769Z,99443.66
2022-12-23T12:48:13.082Z,99441.75
2022-12-23T12:50:58.163Z,99436.16
2022-12-23T12:53:31.134Z,99435.31
2022-12-23T12:56:09.603Z,99425.78
2022-12-23T12:58:40.679Z,99430.19
2022-12-23T13:01:28.125Z,99427.91
2022-12-23T13:04:28.968Z,99429.38
2022-12-23T13:07:12.515Z,99434.34
2022-12-23T13:09:57.336Z,99434.84
2022-12-23T13:12:41.442Z,99427.19
2022-12-23T13:15:23.252Z,99440.09
2022-12-23T13:18:10.088Z,99432.09
2022-12-23T13:20:47.464Z,99433.41
2022-12-23T13:23:45.480Z,99434.63
2022-12-23T13:26:30.072Z,99435.47
2022-12-23T13:29:20.349Z,99430.69
2022-12-23T13:31:58.042Z,99435.34
2022-12-23T13:34:42.235Z,99439.75
2022-12-23T13:37:31.821Z,99444.91
2022-12-23T13:40:22.699Z,99450.38
2022-12-23T13:42:58.699Z,99445.84
2022-12-23T13:45:36.332Z,99464.22
2022-12-23T13:48:24.680Z,99452.31
2022-12-23T13:51:02.837Z,99438.81
2022-12-23T13:53:50.258Z,99453.25
2022-12-23T13:56:30.110Z,99457.19
2022-12-23T13:59:01.018Z,99464.09
2022-12-23T14:01:38.787Z,99440.94
2022-12-23T14:04:39.562Z,99459.91
2022-12-23T14:07:22.459Z,99462.44
2022-12-23T14:09:56.160Z,99467.69
2022-12-23T14:12:32.151Z,99464.56
2022-12-23T14:15:35.420Z,99464.94
2022-12-23T14:18:22.086Z,99460.88
2022-12-23T14:21:05.161Z,99453.00
2022-12-23T14:23:50.219Z,99457.19
2022-12-23T14:26:36.181Z,99460.03
2022-12-23T14:29:31.172Z,99479.59
2022-12-23T14:32:01.846Z,99477.69
2022-12-23T14:34:34.453Z,99469.31
2022-12-23T14:37:36.212Z,99494.75
2022-12-23T14:40:41.246Z,99492.13
2022-12-23T14:43:34.100Z,99492.38
2022-12-23T14:46:08.586Z,99496.78
2022-12-23T14:49:38.473Z,99475.44
2022-12-23T14:52:44.302Z,99464.31
2022-12-23T14:55:45.367Z,99462.78
2022-12-23T14:58:48.261Z,99455.63
2022-12-23T15:01:24.487Z,99461.22
2022-12-23T15:04:01.342Z,99466.56
2022-12-23T15:06:38.341Z,99462.88
2022-12-23T15:09:10.347Z,99471.47
2022-12-23T15:11:43.740Z,99468.03
2022-12-23T15:14:22.901Z,99468.97
2022-12-23T15:16:55.884Z,99461.09
2022-12-23T15:19:28.957Z,99463.84
2022-12-23T15:22:22.272Z,99468.13
2022-12-23T15:24:56.073Z,99463.00
2022-12-23T15:27:28.750Z,99459.41
2022-12-23T15:30:00.583Z,99457.63
2022-12-23T15:32:33.661Z,99465.63
2022-12-23T15:35:07.998Z,99474.09
2022-12-23T15:37:38.393Z,99468.34
2022-12-23T15:40:25.219Z,99471.09
2022-12-23T15:42:55.964Z,99463.00
2022-12-23T15:45:41.700Z,99467.53
2022-12-23T15:48:27.104Z,99472.88
2022-12-23T15:51:01.100Z,99468.47
2022-12-23T15:53:34.305Z,99464.66
2022-12-23T15:56:09.789Z,99466.69
2022-12-23T15:58:45.381Z,99475.41
2022-12-23T16:01:18.459Z,99482.94
2022-12-23T16:03:57.608Z,99483.03
2022-12-23T16:06:32.085Z,99478.75
2022-12-23T16:09:04.109Z,99479.47
2022-12-23T16:11:45.136Z,99480.31
2022-12-23T16:14:36.351Z,99482.59
2022-12-23T16:17:18.677Z,99469.81
2022-12-23T16:19:53.727Z,99477.19
2022-12-23T16:22:30.869Z,99476.22
2022-12-23T16:25:13.566Z,99486.25
2022-12-23T16:27:46.232Z,99478.03
2022-12-23T16:30:20.278Z,99465.50
2022-12-23T16:32:54.873Z,99469.56
2022-12-23T16:35:40.272Z,99462.28
2022-12-23T16:38:21.621Z,99452.47
2022-12-23T16:40:53.696Z,99454.88
2022-12-23T16:43:26.187Z,99444.28
2022-12-23T16:45:59.300Z,99443.56
2022-12-23T16:48:34.542Z,99447.56
2022-12-23T16:51:14.471Z,99456.91
2022-12-23T16:53:44.747Z,99458.56
2022-12-23T16:56:15.849Z,99454.41
2022-12-23T16:58:49.716Z,99454.41
2022-12-23T17:01:25.016Z,99461.31
2022-12-23T17:03:56.070Z,99471.81
2022-12-23T17:06:29.720Z,99470.25
2022-12-23T17:09:03.018Z,99458.91
2022-12-23T17:11:40.790Z,99454.78
2022-12-23T17:14:17.914Z,99458.91
2022-12-23T17:16:48.927Z,99469.41
2022-12-23T17:19:28.002Z,99468.13
2022-12-23T17:22:05.875Z,99461.09
2022-12-23T17:24:36.222Z,99455.72
2022-12-23T17:27:16.059Z,99450.34
2022-12-23T17:29:47.322Z,99456.44
2022-12-23T17:32:21.481Z,99458.34
2022-12-23T17:34:51.706Z,99455.72
2022-12-23T17:37:25.978Z,99461.69
2022-12-23T17:39:56.518Z,99445.34
2022-12-23T17:42:27.005Z,99449.03
2022-12-23T17:44:57.307Z,99451.75
2022-12-23T17:47:27.752Z,99449.38
2022-12-23T17:50:01.066Z,99451.88
2022-12-23T17:52:33.986Z,99446.41
2022-12-23T17:55:04.232Z,99444.34
2022-12-23T17:57:34.503Z,99449.69
2022-12-23T18:00:07.755Z,99443.41
2022-12-23T18:02:38.372Z,99438.88
2022-12-23T18:05:22.720Z,99427.53
2022-12-23T18:07:56.593Z,99421.34
2022-12-23T18:10:28.413Z,99422.06
2022-12-23T18:13:04.797Z,99422.19
2022-12-23T18:15:38.827Z,99425.97
2022-12-23T18:18:27.307Z,99427.31
2022-12-23T18:21:10.399Z,99421.34
2022-12-23T18:23:43.300Z,99417.88
2022-12-23T18:26:16.618Z,99423.75
2022-12-23T18:28:47.357Z,99426.47
2022-12-23T18:31:20.482Z,99429.81
2022-12-23T18:33:51.166Z,99433.41
2022-12-23T18:36:27.955Z,99437.47
2022-12-23T18:39:00.935Z,99442.81
2022-12-23T18:41:31.233Z,99454.28
2022-12-23T18:44:01.509Z,99451.03
2022-12-23T18:46:31.877Z,99452.81
2022-12-23T18:49:02.307Z,99453.88
2022-12-23T18:51:32.592Z,99454.22
2022-12-23T18:54:05.500Z,99465.09
2022-12-23T18:56:35.706Z,99468.56
2022-12-23T18:59:06.047Z,99454.56
2022-12-23T19:01:36.441Z,99459.13
2022-12-23T19:04:06.824Z,99458.53
2022-12-23T19:06:40.487Z,99466.50
2022-12-23T19:09:18.581Z,99464.81
2022-12-23T19:11:51.244Z,99457.69
2022-12-23T19:14:21.439Z,99462.94
2022-12-23T19:16:52.702Z,99477.94
2022-12-23T19:19:24.072Z,99485.06
2022-12-23T19:21:54.544Z,99490.84
2022-12-23T19:24:27.458Z,99477.19
2022-12-23T19:26:57.676Z,99481.16
2022-12-23T19:29:27.944Z,99479.25
2022-12-23T19:31:58.377Z,99481.75
2022-12-23T19:34:28.682Z,99475.53
2022-12-23T19:36:58.990Z,99473.28
2022-12-23T19:39:34.463Z,99460.16
2022-12-23T19:42:04.797Z,99454.94
2022-12-23T19:44:35.115Z,99469.81
2022-12-23T19:47:05.781Z,99469.09
2022-12-23T19:49:37.172Z,99456.44
2022-12-23T19:52:08.236Z,99461.44
2022-12-23T19:54:41.032Z,99453.59
2022-12-23T19:57:11.334Z,99456.44
2022-12-23T19:59:41.580Z,99460.00
2022-12-23T20:02:16.838Z,99458.22
2022-12-23T20:04:47.379Z,99460.91
2022-12-23T20:07:19.948Z,99470.56
2022-12-23T20:09:54.258Z,99468.59
2022-12-23T20:12:26.582Z,99471.31
2022-12-23T20:14:59.530Z,99481.19
2022-12-23T20:17:29.809Z,99482.16
2022-12-23T20:20:01.287Z,99466.16
2022-12-23T20:22:31.638Z,99467.66
2022-12-23T20:25:04.489Z,99454.53
2022-12-23T20:27:35.574Z,99424.22
2022-12-23T20:30:13.631Z,99449.91
2022-12-23T20:32:44.404Z,99449.78
2022-12-23T20:35:14.661Z,99447.50
2022-12-23T20:37:44.823Z,99468.31
2022-12-23T20:40:19.431Z,99466.63
2022-12-23T20:42:49.687Z,99454.88
2022-12-23T20:45:21.506Z,99456.47
2022-12-23T20:47:54.262Z,99463.06
2022-12-23T20:50:27.134Z,99457.72
2022-12-23T20:52:57.309Z,99445.94
2022-12-23T20:55:30.295Z,99453.09
2022-12-23T20:58:20.703Z,99457.59
2022-12-23T21:00:51.253Z,99452.47
2022-12-23T21:03:21.574Z,99448.75
2022-12-23T21:05:51.783Z,99459.94
2022-12-23T21:08:22.090Z,99453.38
2022-12-23T21:10:58.543Z,99450.75
2022-12-23T21:13:28.766Z,99436.19
2022-12-23T21:16:03.727Z,99432.31
2022-12-23T21:18:34.098Z,99437.19
2022-12-23T21:21:05.812Z,99435.69
2022-12-23T21:23:39.981Z,99435.91
2022-12-23T21:26:15.675Z,99432.41
2022-12-23T21:28:48.584Z,99430.00
2022-12-23T21:31:21.733Z,99427.28
2022-12-23T21:33:53.366Z,99424.19
2022-12-23T21:36:25.129Z,99404.84
2022-12-23T21:38:56.333Z,99412.59
2022-12-23T21:41:31.374Z,99397.59
2022-12-23T21:44:02.931Z,99397.19
2022-12-23T21:46:33.268Z,99403.91
2022-12-23T21:49:03.720Z,99404.84
2022-12-23T21:51:40.197Z,99409.03
2022-12-23T21:54:12.072Z,99427.81
2022-12-23T21:56:44.822Z,99444.16
2022-12-23T21:59:16.830Z,99454.00
2022-12-23T22:01:47.183Z,99451.09
2022-12-23T22:04:17.479Z,99444.28
2022-12-23T22:06:48.518Z,99441.22
2022-12-23T22:09:20.725Z,99444.47
2022-12-23T22:11:53.628Z,99440.16
2022-12-23T22:14:23.890Z,99431.56
2022-12-23T22:16:54.207Z,99438.72
2022-12-23T22:19:24.532Z,99435.91
2022-12-23T22:21:54.892Z,99443.56
2022-12-23T22:24:25.216Z,99455.72
2022-12-23T22:26:57.986Z,99462.75
2022-12-23T22:29:29.133Z,99468.81
2022-12-23T22:31:59.489Z,99470.59
2022-12-23T22:34:29.813Z,99465.25
2022-12-23T22:37:00.146Z,99460.13
2022-12-23T22:39:30.407Z,99450.91
2022-12-23T22:42:03.280Z,99433.25
2022-12-23T22:44:33.451Z,99426.09
2022-12-23T22:47:03.779Z,99418.84
2022-12-23T22:49:33.975Z,99410.84
2022-12-23T22:52:04.231Z,99403.63
2022-12-23T22:54:34.582Z,99407.50
2022-12-23T22:57:07.578Z,99395.97
2022-12-23T22:59:41.407Z,99384.03
2022-12-23T23:02:11.745Z,99381.66
2022-12-23T23:04:42.381Z,99359.03
2022-12-23T23:07:12.659Z,99370.94
2022-12-23T23:09:43.719Z,99377.16
2022-12-23T23:12:16.875Z,99369.03
2022-12-23T23:14:56.158Z,99367.88
2022-12-23T23:17:28.440Z,99364.88
2022-12-23T23:19:58.949Z,99348.16
2022-12-23T23:22:29.290Z,99356.53
2022-12-23T23:24:59.708Z,99348.69
2022-12-23T23:27:32.496Z,99346.66
2022-12-23T23:30:07.878Z,99337.03
2022-12-23T23:32:38.460Z,99337.13
2022-12-23T23:35:11.827Z,99332.00
2022-12-23T23:37:42.168Z,99322.81
2022-12-23T23:40:13.904Z,99328.88
2022-12-23T23:42:46.862Z,99325.47
2022-12-23T23:45:17.383Z,99322.03
2022-12-23T23:47:47.663Z,99321.19
2022-12-23T23:50:18.245Z,99325.25
2022-12-23T23:52:48.663Z,99319.00
2022-12-23T23:55:19.066Z,99322.97
2022-12-23T23:57:51.809Z,99313.81
